Terminal Aerodrome Forecast
Issued by NWS

Home | Current Version | Previous Version | Text Only | Print | Product List | Glossary On
Versions: 1 2 3 4 5 6 7 8 9 10 11 12 13 14 15 16 17
471
FTPA31 PHFO 251738
TAFHJR
TAF
PHJR 251738Z 2518/2618 17014KT P6SM SCT015 OVC050
     FM252000 16012KT P6SM VCSH SCT025 BKN045
     FM260600 08006KT P6SM FEW030 SCT045=

USA.gov is the U.S. government's official web portal to all federal, state and local government web resources and services.